sensor_id;sensor_type;location;lat;lon;timestamp;pressure;altitude;pressure_sealevel;temperature;humidity
2184;BME280;1098;48.940;8.962;2023-02-14T00:00:08;100372.13;;;1.83;100.00
2184;BME280;1098;48.940;8.962;2023-02-14T00:02:36;100366.09;;;1.70;100.00
2184;BME280;1098;48.940;8.962;2023-02-14T00:05:05;100359.00;;;1.91;100.00
2184;BME280;1098;48.940;8.962;2023-02-14T00:07:33;100357.78;;;1.95;100.00
2184;BME280;1098;48.940;8.962;2023-02-14T00:10:02;100348.22;;;2.25;100.00
2184;BME280;1098;48.940;8.962;2023-02-14T00:12:30;100354.00;;;1.55;100.00
2184;BME280;1098;48.940;8.962;2023-02-14T00:14:58;100335.16;;;1.35;100.00
2184;BME280;1098;48.940;8.962;2023-02-14T00:17:46;100356.81;;;1.42;100.00
2184;BME280;1098;48.940;8.962;2023-02-14T00:20:14;100358.84;;;1.50;100.00
2184;BME280;1098;48.940;8.962;2023-02-14T00:22:42;100363.25;;;1.40;100.00
2184;BME280;1098;48.940;8.962;2023-02-14T00:25:11;100362.59;;;1.47;100.00
2184;BME280;1098;48.940;8.962;2023-02-14T00:27:42;100363.84;;;1.43;100.00
2184;BME280;1098;48.940;8.962;2023-02-14T00:30:11;100366.38;;;1.45;100.00
2184;BME280;1098;48.940;8.962;2023-02-14T00:32:41;100362.53;;;1.15;100.00
2184;BME280;1098;48.940;8.962;2023-02-14T00:35:11;100363.84;;;1.21;100.00
2184;BME280;1098;48.940;8.962;2023-02-14T00:37:40;100366.75;;;1.18;100.00
2184;BME280;1098;48.940;8.962;2023-02-14T00:40:09;100364.19;;;1.27;100.00
2184;BME280;1098;48.940;8.962;2023-02-14T00:42:38;100363.09;;;1.63;100.00
2184;BME280;1098;48.940;8.962;2023-02-14T00:45:07;100359.47;;;1.31;100.00
2184;BME280;1098;48.940;8.962;2023-02-14T00:47:38;100360.91;;;1.46;100.00
2184;BME280;1098;48.940;8.962;2023-02-14T00:50:07;100349.19;;;1.26;100.00
2184;BME280;1098;48.940;8.962;2023-02-14T00:52:37;100365.03;;;1.28;100.00
2184;BME280;1098;48.940;8.962;2023-02-14T00:55:05;100353.81;;;1.24;100.00
2184;BME280;1098;48.940;8.962;2023-02-14T00:57:34;100358.28;;;1.24;100.00
2184;BME280;1098;48.940;8.962;2023-02-14T01:00:05;100351.25;;;1.34;100.00
2184;BME280;1098;48.940;8.962;2023-02-14T01:02:34;100355.88;;;1.21;100.00
2184;BME280;1098;48.940;8.962;2023-02-14T01:05:02;100355.97;;;0.97;100.00
2184;BME280;1098;48.940;8.962;2023-02-14T01:07:31;100360.34;;;1.09;100.00
2184;BME280;1098;48.940;8.962;2023-02-14T01:10:00;100358.00;;;1.49;100.00
2184;BME280;1098;48.940;8.962;2023-02-14T01:12:31;100337.09;;;1.11;100.00
2184;BME280;1098;48.940;8.962;2023-02-14T01:15:00;100354.66;;;1.36;100.00
2184;BME280;1098;48.940;8.962;2023-02-14T01:17:28;100355.06;;;1.75;100.00
2184;BME280;1098;48.940;8.962;2023-02-14T01:19:56;100361.91;;;1.00;100.00
2184;BME280;1098;48.940;8.962;2023-02-14T01:22:25;100361.94;;;1.23;100.00
2184;BME280;1098;48.940;8.962;2023-02-14T01:24:53;100363.00;;;1.20;100.00
2184;BME280;1098;48.940;8.962;2023-02-14T01:27:23;100364.69;;;0.99;100.00
2184;BME280;1098;48.940;8.962;2023-02-14T01:29:53;100355.75;;;1.11;100.00
2184;BME280;1098;48.940;8.962;2023-02-14T01:32:21;100357.56;;;1.11;100.00
2184;BME280;1098;48.940;8.962;2023-02-14T01:34:52;100367.69;;;1.06;100.00
2184;BME280;1098;48.940;8.962;2023-02-14T01:37:20;100369.91;;;1.00;100.00
2184;BME280;1098;48.940;8.962;2023-02-14T01:39:51;100358.88;;;1.05;100.00
2184;BME280;1098;48.940;8.962;2023-02-14T01:42:19;100355.84;;;0.87;100.00
2184;BME280;1098;48.940;8.962;2023-02-14T01:45:06;100351.56;;;0.62;100.00
2184;BME280;1098;48.940;8.962;2023-02-14T01:47:40;100349.78;;;0.74;100.00
2184;BME280;1098;48.940;8.962;2023-02-14T01:50:14;100349.22;;;0.82;100.00
2184;BME280;1098;48.940;8.962;2023-02-14T01:52:46;100357.78;;;0.74;100.00
2184;BME280;1098;48.940;8.962;2023-02-14T01:55:19;100358.28;;;0.79;100.00
2184;BME280;1098;48.940;8.962;2023-02-14T01:57:50;100356.53;;;0.56;100.00
2184;BME280;1098;48.940;8.962;2023-02-14T02:00:23;100339.09;;;0.52;100.00
2184;BME280;1098;48.940;8.962;2023-02-14T02:03:09;100368.44;;;1.19;100.00
2184;BME280;1098;48.940;8.962;2023-02-14T02:05:43;100357.03;;;0.61;100.00
2184;BME280;1098;48.940;8.962;2023-02-14T02:08:13;100366.13;;;0.81;100.00
2184;BME280;1098;48.940;8.962;2023-02-14T02:10:43;100371.03;;;0.63;100.00
2184;BME280;1098;48.940;8.962;2023-02-14T02:13:15;100361.06;;;0.43;100.00
2184;BME280;1098;48.940;8.962;2023-02-14T02:15:52;100373.41;;;0.44;100.00
2184;BME280;1098;48.940;8.962;2023-02-14T02:18:34;100371.78;;;0.30;100.00
2184;BME280;1098;48.940;8.962;2023-02-14T02:21:49;100359.25;;;0.32;100.00
2184;BME280;1098;48.940;8.962;2023-02-14T02:24:30;100365.59;;;0.18;100.00
2184;BME280;1098;48.940;8.962;2023-02-14T02:27:17;100359.06;;;0.22;100.00
2184;BME280;1098;48.940;8.962;2023-02-14T02:33:48;100355.63;;;0.33;100.00
2184;BME280;1098;48.940;8.962;2023-02-14T02:36:45;100347.53;;;0.46;100.00
2184;BME280;1098;48.940;8.962;2023-02-14T02:39:27;100345.72;;;0.46;100.00
2184;BME280;1098;48.940;8.962;2023-02-14T02:42:05;100355.97;;;0.75;100.00
2184;BME280;1098;48.940;8.962;2023-02-14T02:44:43;100353.75;;;0.57;100.00
2184;BME280;1098;48.940;8.962;2023-02-14T02:47:21;100351.97;;;0.91;100.00
2184;BME280;1098;48.940;8.962;2023-02-14T02:50:03;100348.94;;;0.85;100.00
2184;BME280;1098;48.940;8.962;2023-02-14T02:52:55;100345.78;;;0.57;100.00
2184;BME280;1098;48.940;8.962;2023-02-14T02:55:41;100349.97;;;0.49;100.00
2184;BME280;1098;48.940;8.962;2023-02-14T02:58:32;100354.22;;;0.51;100.00
2184;BME280;1098;48.940;8.962;2023-02-14T03:01:07;100351.91;;;0.47;100.00
2184;BME280;1098;48.940;8.962;2023-02-14T03:03:37;100359.53;;;0.51;100.00
2184;BME280;1098;48.940;8.962;2023-02-14T03:06:25;100336.19;;;0.44;100.00
2184;BME280;1098;48.940;8.962;2023-02-14T03:08:55;100351.25;;;0.78;100.00
2184;BME280;1098;48.940;8.962;2023-02-14T03:11:23;100349.91;;;0.84;100.00
2184;BME280;1098;48.940;8.962;2023-02-14T03:14:03;100353.28;;;0.86;100.00
2184;BME280;1098;48.940;8.962;2023-02-14T03:16:40;100344.00;;;1.14;100.00
2184;BME280;1098;48.940;8.962;2023-02-14T03:19:41;100341.66;;;1.65;100.00
2184;BME280;1098;48.940;8.962;2023-02-14T03:22:41;100344.63;;;1.83;100.00
2184;BME280;1098;48.940;8.962;2023-02-14T03:25:21;100341.09;;;1.39;100.00
2184;BME280;1098;48.940;8.962;2023-02-14T03:27:55;100342.53;;;1.32;100.00
2184;BME280;1098;48.940;8.962;2023-02-14T03:30:32;100336.38;;;1.09;100.00
2184;BME280;1098;48.940;8.962;2023-02-14T03:33:12;100338.91;;;1.11;100.00
2184;BME280;1098;48.940;8.962;2023-02-14T03:35:47;100347.03;;;0.98;100.00
2184;BME280;1098;48.940;8.962;2023-02-14T03:38:21;100351.72;;;0.83;100.00
2184;BME280;1098;48.940;8.962;2023-02-14T03:40:56;100340.59;;;0.78;100.00
2184;BME280;1098;48.940;8.962;2023-02-14T03:43:30;100350.47;;;0.65;100.00
2184;BME280;1098;48.940;8.962;2023-02-14T03:46:03;100352.69;;;0.71;100.00
2184;BME280;1098;48.940;8.962;2023-02-14T03:48:34;100354.63;;;0.91;100.00
2184;BME280;1098;48.940;8.962;2023-02-14T03:51:06;100350.28;;;0.79;100.00
2184;BME280;1098;48.940;8.962;2023-02-14T03:53:39;100355.34;;;0.71;100.00
2184;BME280;1098;48.940;8.962;2023-02-14T03:56:13;100349.31;;;0.80;100.00
2184;BME280;1098;48.940;8.962;2023-02-14T03:58:46;100340.97;;;1.07;100.00
2184;BME280;1098;48.940;8.962;2023-02-14T04:01:20;100345.56;;;0.83;100.00
2184;BME280;1098;48.940;8.962;2023-02-14T04:03:49;100341.22;;;0.93;100.00
2184;BME280;1098;48.940;8.962;2023-02-14T04:06:20;100335.53;;;0.97;100.00
2184;BME280;1098;48.940;8.962;2023-02-14T04:08:48;100336.16;;;1.23;100.00
2184;BME280;1098;48.940;8.962;2023-02-14T04:11:18;100322.78;;;1.57;100.00
2184;BME280;1098;48.940;8.962;2023-02-14T04:13:49;100335.31;;;2.09;100.00
2184;BME280;1098;48.940;8.962;2023-02-14T04:16:18;100331.59;;;2.00;100.00
2184;BME280;1098;48.940;8.962;2023-02-14T04:18:49;100333.63;;;2.08;100.00
2184;BME280;1098;48.940;8.962;2023-02-14T04:21:38;100343.69;;;1.72;100.00
2184;BME280;1098;48.940;8.962;2023-02-14T04:24:06;100334.09;;;1.70;100.00
2184;BME280;1098;48.940;8.962;2023-02-14T04:26:36;100341.13;;;1.71;100.00
2184;BME280;1098;48.940;8.962;2023-02-14T04:29:04;100332.84;;;1.31;100.00
2184;BME280;1098;48.940;8.962;2023-02-14T04:31:33;100337.22;;;1.21;100.00
2184;BME280;1098;48.940;8.962;2023-02-14T04:34:01;100341.69;;;1.31;100.00
2184;BME280;1098;48.940;8.962;2023-02-14T04:36:30;100345.53;;;0.72;100.00
2184;BME280;1098;48.940;8.962;2023-02-14T04:38:58;100333.56;;;0.66;100.00
2184;BME280;1098;48.940;8.962;2023-02-14T04:41:26;100336.75;;;0.82;100.00
2184;BME280;1098;48.940;8.962;2023-02-14T04:43:56;100337.59;;;0.83;100.00
2184;BME280;1098;48.940;8.962;2023-02-14T04:46:25;100327.03;;;0.70;100.00
2184;BME280;1098;48.940;8.962;2023-02-14T04:48:53;100334.47;;;0.43;100.00
2184;BME280;1098;48.940;8.962;2023-02-14T04:51:21;100332.84;;;0.86;100.00
2184;BME280;1098;48.940;8.962;2023-02-14T04:53:53;100334.53;;;0.65;100.00
2184;BME280;1098;48.940;8.962;2023-02-14T04:56:21;100332.06;;;0.40;100.00
2184;BME280;1098;48.940;8.962;2023-02-14T04:58:52;100332.75;;;0.30;100.00
2184;BME280;1098;48.940;8.962;2023-02-14T05:01:21;100335.22;;;0.45;100.00
2184;BME280;1098;48.940;8.962;2023-02-14T05:03:50;100330.34;;;0.27;100.00
2184;BME280;1098;48.940;8.962;2023-02-14T05:06:18;100337.09;;;0.20;100.00
2184;BME280;1098;48.940;8.962;2023-02-14T05:08:47;100322.88;;;0.32;100.00
2184;BME280;1098;48.940;8.962;2023-02-14T05:11:15;100328.50;;;0.17;100.00
2184;BME280;1098;48.940;8.962;2023-02-14T05:13:43;100325.06;;;0.04;100.00
2184;BME280;1098;48.940;8.962;2023-02-14T05:16:12;100329.56;;;0.14;100.00
2184;BME280;1098;48.940;8.962;2023-02-14T05:18:41;100336.50;;;0.28;100.00
2184;BME280;1098;48.940;8.962;2023-02-14T05:21:10;100310.69;;;0.06;100.00
2184;BME280;1098;48.940;8.962;2023-02-14T05:23:38;100327.34;;;0.32;100.00
2184;BME280;1098;48.940;8.962;2023-02-14T05:26:07;100328.69;;;0.38;100.00
2184;BME280;1098;48.940;8.962;2023-02-14T05:28:35;100331.19;;;0.28;100.00
2184;BME280;1098;48.940;8.962;2023-02-14T05:31:03;100307.59;;;0.23;100.00
2184;BME280;1098;48.940;8.962;2023-02-14T05:33:32;100329.94;;;0.21;100.00
2184;BME280;1098;48.940;8.962;2023-02-14T05:36:02;100331.78;;;0.20;100.00
2184;BME280;1098;48.940;8.962;2023-02-14T05:38:30;100332.25;;;0.60;100.00
2184;BME280;1098;48.940;8.962;2023-02-14T05:41:01;100326.06;;;0.71;100.00
2184;BME280;1098;48.940;8.962;2023-02-14T05:43:30;100318.22;;;0.69;100.00
2184;BME280;1098;48.940;8.962;2023-02-14T05:45:58;100333.59;;;1.22;100.00
2184;BME280;1098;48.940;8.962;2023-02-14T05:48:27;100329.38;;;1.19;100.00
2184;BME280;1098;48.940;8.962;2023-02-14T05:50:55;100326.34;;;1.24;100.00
2184;BME280;1098;48.940;8.962;2023-02-14T05:53:25;100332.50;;;1.13;100.00
2184;BME280;1098;48.940;8.962;2023-02-14T05:55:54;100341.44;;;1.34;100.00
2184;BME280;1098;48.940;8.962;2023-02-14T05:58:22;100334.34;;;1.24;100.00
2184;BME280;1098;48.940;8.962;2023-02-14T06:00:51;100336.00;;;1.14;100.00
2184;BME280;1098;48.940;8.962;2023-02-14T06:03:19;100340.75;;;1.21;100.00
2184;BME280;1098;48.940;8.962;2023-02-14T06:05:48;100338.19;;;0.29;100.00
2184;BME280;1098;48.940;8.962;2023-02-14T06:08:16;100339.88;;;0.76;100.00
2184;BME280;1098;48.940;8.962;2023-02-14T06:10:48;100338.16;;;0.64;100.00
2184;BME280;1098;48.940;8.962;2023-02-14T06:13:16;100331.50;;;0.69;100.00
2184;BME280;1098;48.940;8.962;2023-02-14T06:15:45;100334.09;;;1.16;100.00
2184;BME280;1098;48.940;8.962;2023-02-14T06:18:13;100337.84;;;1.13;100.00
2184;BME280;1098;48.940;8.962;2023-02-14T06:20:41;100341.19;;;1.49;100.00
2184;BME280;1098;48.940;8.962;2023-02-14T06:23:12;100343.75;;;1.06;100.00
2184;BME280;1098;48.940;8.962;2023-02-14T06:25:42;100341.09;;;0.94;100.00
2184;BME280;1098;48.940;8.962;2023-02-14T06:28:12;100342.31;;;0.33;100.00
2184;BME280;1098;48.940;8.962;2023-02-14T06:30:44;100345.56;;;0.02;100.00
2184;BME280;1098;48.940;8.962;2023-02-14T06:33:13;100347.41;;;0.36;100.00
2184;BME280;1098;48.940;8.962;2023-02-14T06:35:42;100360.38;;;0.41;100.00
2184;BME280;1098;48.940;8.962;2023-02-14T06:38:10;100359.66;;;0.50;100.00
2184;BME280;1098;48.940;8.962;2023-02-14T06:40:38;100353.75;;;0.57;100.00
2184;BME280;1098;48.940;8.962;2023-02-14T06:43:06;100360.91;;;0.68;100.00
2184;BME280;1098;48.940;8.962;2023-02-14T06:45:36;100356.59;;;1.00;100.00
2184;BME280;1098;48.940;8.962;2023-02-14T06:48:05;100358.88;;;1.05;100.00
2184;BME280;1098;48.940;8.962;2023-02-14T06:50:33;100360.34;;;1.31;100.00
2184;BME280;1098;48.940;8.962;2023-02-14T06:53:02;100357.31;;;1.14;100.00
2184;BME280;1098;48.940;8.962;2023-02-14T06:55:30;100362.50;;;1.04;100.00
2184;BME280;1098;48.940;8.962;2023-02-14T06:57:58;100350.44;;;0.43;100.00
2184;BME280;1098;48.940;8.962;2023-02-14T07:00:27;100360.94;;;-0.02;100.00
2184;BME280;1098;48.940;8.962;2023-02-14T07:02:57;100365.38;;;-0.26;100.00
2184;BME280;1098;48.940;8.962;2023-02-14T07:05:25;100368.25;;;-0.29;100.00
2184;BME280;1098;48.940;8.962;2023-02-14T07:07:54;100339.09;;;-0.18;100.00
2184;BME280;1098;48.940;8.962;2023-02-14T07:10:22;100362.00;;;-0.41;100.00
2184;BME280;1098;48.940;8.962;2023-02-14T07:12:50;100349.09;;;-0.46;100.00
2184;BME280;1098;48.940;8.962;2023-02-14T07:15:19;100361.72;;;0.22;100.00
2184;BME280;1098;48.940;8.962;2023-02-14T07:17:47;100364.34;;;-0.37;100.00
2184;BME280;1098;48.940;8.962;2023-02-14T07:20:20;100362.25;;;-0.20;100.00
2184;BME280;1098;48.940;8.962;2023-02-14T07:22:48;100363.28;;;-0.10;100.00
2184;BME280;1098;48.940;8.962;2023-02-14T07:25:16;100339.41;;;0.01;100.00
2184;BME280;1098;48.940;8.962;2023-02-14T07:27:45;100362.16;;;-0.55;100.00
2184;BME280;1098;48.940;8.962;2023-02-14T07:30:13;100359.94;;;-0.49;100.00
2184;BME280;1098;48.940;8.962;2023-02-14T07:32:44;100345.84;;;-0.38;100.00
2184;BME280;1098;48.940;8.962;2023-02-14T07:35:13;100350.41;;;-0.27;100.00
2184;BME280;1098;48.940;8.962;2023-02-14T07:37:42;100353.81;;;-0.38;100.00
2184;BME280;1098;48.940;8.962;2023-02-14T07:40:11;100354.69;;;-0.14;100.00
2184;BME280;1098;48.940;8.962;2023-02-14T07:42:41;100353.72;;;-0.13;100.00
2184;BME280;1098;48.940;8.962;2023-02-14T07:45:10;100364.47;;;0.10;100.00
2184;BME280;1098;48.940;8.962;2023-02-14T07:47:49;100361.97;;;0.19;100.00
2184;BME280;1098;48.940;8.962;2023-02-14T07:50:18;100361.03;;;0.20;100.00
2184;BME280;1098;48.940;8.962;2023-02-14T07:52:48;100362.53;;;0.12;100.00
2184;BME280;1098;48.940;8.962;2023-02-14T07:55:16;100358.19;;;-0.13;100.00
2184;BME280;1098;48.940;8.962;2023-02-14T07:57:46;100365.00;;;0.61;100.00
2184;BME280;1098;48.940;8.962;2023-02-14T08:00:15;100364.41;;;0.68;100.00
2184;BME280;1098;48.940;8.962;2023-02-14T08:02:46;100347.75;;;0.31;100.00
2184;BME280;1098;48.940;8.962;2023-02-14T08:05:15;100363.25;;;0.38;100.00
2184;BME280;1098;48.940;8.962;2023-02-14T08:07:44;100364.09;;;0.38;100.00
2184;BME280;1098;48.940;8.962;2023-02-14T08:10:17;100358.22;;;0.57;100.00
2184;BME280;1098;48.940;8.962;2023-02-14T08:12:45;100360.31;;;0.76;100.00
2184;BME280;1098;48.940;8.962;2023-02-14T08:15:27;100354.84;;;0.55;100.00
2184;BME280;1098;48.940;8.962;2023-02-14T08:18:14;100353.44;;;0.95;100.00
2184;BME280;1098;48.940;8.962;2023-02-14T08:20:43;100355.09;;;0.74;100.00
2184;BME280;1098;48.940;8.962;2023-02-14T08:23:12;100361.91;;;1.12;100.00
2184;BME280;1098;48.940;8.962;2023-02-14T08:25:42;100352.22;;;1.11;100.00
2184;BME280;1098;48.940;8.962;2023-02-14T08:28:11;100354.16;;;1.09;100.00
2184;BME280;1098;48.940;8.962;2023-02-14T08:30:41;100338.91;;;1.33;100.00
2184;BME280;1098;48.940;8.962;2023-02-14T08:33:10;100335.28;;;1.45;100.00
2184;BME280;1098;48.940;8.962;2023-02-14T08:35:38;100341.91;;;1.51;100.00
2184;BME280;1098;48.940;8.962;2023-02-14T08:38:07;100351.97;;;1.36;100.00
2184;BME280;1098;48.940;8.962;2023-02-14T08:40:35;100341.00;;;1.84;100.00
2184;BME280;1098;48.940;8.962;2023-02-14T08:43:08;100336.84;;;2.23;100.00
2184;BME280;1098;48.940;8.962;2023-02-14T08:45:37;100329.25;;;1.75;100.00
2184;BME280;1098;48.940;8.962;2023-02-14T08:48:08;100336.84;;;1.91;100.00
2184;BME280;1098;48.940;8.962;2023-02-14T08:50:38;100326.88;;;2.04;100.00
2184;BME280;1098;48.940;8.962;2023-02-14T08:53:07;100331.59;;;2.00;100.00
2184;BME280;1098;48.940;8.962;2023-02-14T08:55:36;100329.09;;;1.88;100.00
2184;BME280;1098;48.940;8.962;2023-02-14T08:58:05;100329.75;;;2.54;100.00
2184;BME280;1098;48.940;8.962;2023-02-14T09:00:35;100335.50;;;1.96;100.00
2184;BME280;1098;48.940;8.962;2023-02-14T09:03:04;100330.81;;;2.41;100.00
2184;BME280;1098;48.940;8.962;2023-02-14T09:05:35;100331.78;;;2.40;100.00
2184;BME280;1098;48.940;8.962;2023-02-14T09:08:05;100322.66;;;2.43;100.00
2184;BME280;1098;48.940;8.962;2023-02-14T09:10:33;100330.84;;;2.30;100.00
2184;BME280;1098;48.940;8.962;2023-02-14T09:13:02;100332.06;;;3.19;100.00
2184;BME280;1098;48.940;8.962;2023-02-14T09:15:30;100331.63;;;2.84;100.00
2184;BME280;1098;48.940;8.962;2023-02-14T09:18:00;100328.16;;;2.72;100.00
2184;BME280;1098;48.940;8.962;2023-02-14T09:20:29;100326.06;;;2.66;100.00
2184;BME280;1098;48.940;8.962;2023-02-14T09:22:57;100334.53;;;3.01;100.00
2184;BME280;1098;48.940;8.962;2023-02-14T09:25:25;100323.81;;;2.71;100.00
2184;BME280;1098;48.940;8.962;2023-02-14T09:27:54;100329.41;;;2.89;100.00
2184;BME280;1098;48.940;8.962;2023-02-14T09:30:22;100324.19;;;2.87;100.00
2184;BME280;1098;48.940;8.962;2023-02-14T09:32:51;100331.00;;;3.31;100.00
2184;BME280;1098;48.940;8.962;2023-02-14T09:35:21;100326.69;;;2.58;100.00
2184;BME280;1098;48.940;8.962;2023-02-14T09:38:09;100327.88;;;2.45;100.00
2184;BME280;1098;48.940;8.962;2023-02-14T09:40:38;100325.91;;;2.88;100.00
2184;BME280;1098;48.940;8.962;2023-02-14T09:43:08;100331.09;;;2.06;100.00
2184;BME280;1098;48.940;8.962;2023-02-14T09:45:39;100330.28;;;2.48;100.00
2184;BME280;1098;48.940;8.962;2023-02-14T09:48:13;100315.75;;;2.20;100.00
2184;BME280;1098;48.940;8.962;2023-02-14T09:50:49;100324.50;;;2.63;100.00
2184;BME280;1098;48.940;8.962;2023-02-14T09:53:24;100317.63;;;2.50;100.00
2184;BME280;1098;48.940;8.962;2023-02-14T09:55:58;100314.22;;;2.38;100.00
2184;BME280;1098;48.940;8.962;2023-02-14T09:58:33;100320.78;;;2.34;100.00
2184;BME280;1098;48.940;8.962;2023-02-14T10:01:10;100304.47;;;2.48;100.00
2184;BME280;1098;48.940;8.962;2023-02-14T10:04:05;100315.97;;;2.49;100.00
2184;BME280;1098;48.940;8.962;2023-02-14T10:06:50;100300.00;;;2.58;100.00
2184;BME280;1098;48.940;8.962;2023-02-14T10:09:39;100305.41;;;2.68;100.00
2184;BME280;1098;48.940;8.962;2023-02-14T10:12:15;100309.91;;;3.28;100.00
2184;BME280;1098;48.940;8.962;2023-02-14T10:14:47;100300.63;;;3.32;100.00
2184;BME280;1098;48.940;8.962;2023-02-14T10:17:19;100294.16;;;3.35;100.00
2184;BME280;1098;48.940;8.962;2023-02-14T10:19:53;100291.22;;;3.38;100.00
2184;BME280;1098;48.940;8.962;2023-02-14T10:22:30;100282.16;;;3.20;100.00
2184;BME280;1098;48.940;8.962;2023-02-14T10:25:02;100286.63;;;4.17;100.00
2184;BME280;1098;48.940;8.962;2023-02-14T10:27:36;100289.19;;;3.70;100.00
2184;BME280;1098;48.940;8.962;2023-02-14T10:30:11;100286.38;;;4.10;100.00
2184;BME280;1098;48.940;8.962;2023-02-14T10:32:44;100278.34;;;3.91;100.00
2184;BME280;1098;48.940;8.962;2023-02-14T10:35:25;100284.69;;;4.00;100.00
2184;BME280;1098;48.940;8.962;2023-02-14T10:38:04;100278.06;;;4.04;100.00
2184;BME280;1098;48.940;8.962;2023-02-14T10:40:46;100276.25;;;3.85;100.00
2184;BME280;1098;48.940;8.962;2023-02-14T10:43:22;100266.31;;;4.43;100.00
2184;BME280;1098;48.940;8.962;2023-02-14T10:46:02;100273.38;;;4.54;100.00
2184;BME280;1098;48.940;8.962;2023-02-14T10:48:42;100271.13;;;4.40;100.00
2184;BME280;1098;48.940;8.962;2023-02-14T10:51:15;100269.13;;;5.26;100.00
2184;BME280;1098;48.940;8.962;2023-02-14T10:54:00;100275.94;;;4.36;100.00
2184;BME280;1098;48.940;8.962;2023-02-14T10:56:33;100258.47;;;4.79;100.00
2184;BME280;1098;48.940;8.962;2023-02-14T10:59:13;100263.56;;;3.97;100.00
2184;BME280;1098;48.940;8.962;2023-02-14T11:01:44;100260.41;;;4.87;100.00
2184;BME280;1098;48.940;8.962;2023-02-14T11:04:14;100263.44;;;4.74;100.00
2184;BME280;1098;48.940;8.962;2023-02-14T11:06:44;100254.50;;;4.83;100.00
2184;BME280;1098;48.940;8.962;2023-02-14T11:09:17;100261.66;;;4.55;100.00
2184;BME280;1098;48.940;8.962;2023-02-14T11:11:48;100244.25;;;5.78;100.00
2184;BME280;1098;48.940;8.962;2023-02-14T11:14:23;100263.38;;;4.83;100.00
2184;BME280;1098;48.940;8.962;2023-02-14T11:16:53;100257.16;;;4.93;100.00
2184;BME280;1098;48.940;8.962;2023-02-14T11:19:24;100247.09;;;4.77;100.00
2184;BME280;1098;48.940;8.962;2023-02-14T11:21:56;100238.31;;;5.12;100.00
2184;BME280;1098;48.940;8.962;2023-02-14T11:24:31;100239.50;;;5.27;100.00
2184;BME280;1098;48.940;8.962;2023-02-14T11:27:03;100229.44;;;5.11;100.00
2184;BME280;1098;48.940;8.962;2023-02-14T11:29:34;100225.41;;;5.25;100.00
2184;BME280;1098;48.940;8.962;2023-02-14T11:32:08;100228.91;;;5.26;100.00
2184;BME280;1098;48.940;8.962;2023-02-14T11:34:37;100237.16;;;4.87;100.00
2184;BME280;1098;48.940;8.962;2023-02-14T11:37:18;100218.56;;;5.76;100.00
2184;BME280;1098;48.940;8.962;2023-02-14T11:39:57;100229.50;;;5.47;100.00
2184;BME280;1098;48.940;8.962;2023-02-14T11:42:37;100210.28;;;5.51;100.00
2184;BME280;1098;48.940;8.962;2023-02-14T11:45:26;100216.56;;;5.78;100.00
2184;BME280;1098;48.940;8.962;2023-02-14T11:48:15;100194.84;;;6.07;100.00
2184;BME280;1098;48.940;8.962;2023-02-14T11:50:54;100210.84;;;5.91;100.00
2184;BME280;1098;48.940;8.962;2023-02-14T11:53:24;100205.91;;;5.86;100.00
2184;BME280;1098;48.940;8.962;2023-02-14T11:55:56;100198.97;;;5.93;100.00
2184;BME280;1098;48.940;8.962;2023-02-14T11:58:30;100202.25;;;6.31;100.00
2184;BME280;1098;48.940;8.962;2023-02-14T12:01:00;100179.56;;;6.25;100.00
2184;BME280;1098;48.940;8.962;2023-02-14T12:03:36;100194.13;;;6.48;100.00
2184;BME280;1098;48.940;8.962;2023-02-14T12:06:06;100196.56;;;6.60;100.00
2184;BME280;1098;48.940;8.962;2023-02-14T12:08:37;100203.03;;;6.49;100.00
2184;BME280;1098;48.940;8.962;2023-02-14T12:11:20;100194.25;;;6.39;100.00
2184;BME280;1098;48.940;8.962;2023-02-14T12:13:52;100195.34;;;6.54;100.00
2184;BME280;1098;48.940;8.962;2023-02-14T12:16:25;100180.94;;;6.97;100.00
2184;BME280;1098;48.940;8.962;2023-02-14T12:18:58;100185.38;;;6.72;100.00
2184;BME280;1098;48.940;8.962;2023-02-14T12:21:40;100180.47;;;7.02;100.00
2184;BME280;1098;48.940;8.962;2023-02-14T12:24:17;100177.41;;;7.47;100.00
2184;BME280;1098;48.940;8.962;2023-02-14T12:26:55;100176.56;;;8.52;100.00
2184;BME280;1098;48.940;8.962;2023-02-14T12:29:29;100169.66;;;7.44;100.00
2184;BME280;1098;48.940;8.962;2023-02-14T12:32:01;100167.28;;;7.33;100.00
2184;BME280;1098;48.940;8.962;2023-02-14T12:34:34;100163.94;;;7.47;100.00
2184;BME280;1098;48.940;8.962;2023-02-14T12:37:28;100170.88;;;7.66;100.00
2184;BME280;1098;48.940;8.962;2023-02-14T12:40:10;100158.25;;;8.07;100.00
2184;BME280;1098;48.940;8.962;2023-02-14T12:42:52;100150.69;;;7.62;100.00
2184;BME280;1098;48.940;8.962;2023-02-14T12:45:31;100150.84;;;7.68;100.00
2184;BME280;1098;48.940;8.962;2023-02-14T12:48:22;100152.47;;;8.42;100.00
2184;BME280;1098;48.940;8.962;2023-02-14T12:50:56;100152.00;;;7.74;100.00
2184;BME280;1098;48.940;8.962;2023-02-14T12:53:49;100127.63;;;7.75;100.00
2184;BME280;1098;48.940;8.962;2023-02-14T12:56:27;100143.00;;;8.54;100.00
2184;BME280;1098;48.940;8.962;2023-02-14T12:59:15;100141.38;;;8.37;100.00
2184;BME280;1098;48.940;8.962;2023-02-14T13:02:25;100140.88;;;8.89;100.00
2184;BME280;1098;48.940;8.962;2023-02-14T13:05:05;100133.91;;;8.55;100.00
2184;BME280;1098;48.940;8.962;2023-02-14T13:07:50;100137.50;;;8.48;100.00
2184;BME280;1098;48.940;8.962;2023-02-14T13:10:27;100127.06;;;8.84;100.00
2184;BME280;1098;48.940;8.962;2023-02-14T13:13:06;100129.25;;;8.49;100.00
2184;BME280;1098;48.940;8.962;2023-02-14T13:15:41;100119.31;;;8.89;100.00
2184;BME280;1098;48.940;8.962;2023-02-14T13:18:17;100123.47;;;8.52;100.00
2184;BME280;1098;48.940;8.962;2023-02-14T13:20:53;100126.91;;;8.22;100.00
2184;BME280;1098;48.940;8.962;2023-02-14T13:23:27;100113.75;;;8.90;100.00
2184;BME280;1098;48.940;8.962;2023-02-14T13:26:01;100104.84;;;9.13;100.00
2184;BME280;1098;48.940;8.962;2023-02-14T13:28:31;100100.88;;;8.70;100.00
2184;BME280;1098;48.940;8.962;2023-02-14T13:31:02;100103.91;;;8.67;100.00
2184;BME280;1098;48.940;8.962;2023-02-14T13:33:33;100105.22;;;9.55;100.00
2184;BME280;1098;48.940;8.962;2023-02-14T13:36:06;100084.34;;;9.04;100.00
2184;BME280;1098;48.940;8.962;2023-02-14T13:38:41;100099.16;;;9.08;100.00
2184;BME280;1098;48.940;8.962;2023-02-14T13:41:11;100104.75;;;8.98;100.00
2184;BME280;1098;48.940;8.962;2023-02-14T13:43:46;100093.53;;;9.40;100.00